Time;durP1;ratioP1;P1;durP2;ratioP2;P2;SDS_P1;SDS_P2;PMS_P1;PMS_P2;Temp;Humidity;BMP_temperature;BMP_pressure;BME280_temperature;BME280_humidity;BME280_pressure;Samples;Min_cycle;Max_cycle;Signal;HPM_P1;HPM_P2
2023/12/05 00:00:53;;;;;;;40.47;24.70;;;;;;;-0.39;66.46;100080.31;4453167;32;34220;-80
2023/12/05 00:03:23;;;;;;;38.45;24.23;;;;;;;-0.49;67.07;100081.37;4453655;32;34102;-81
2023/12/05 00:05:53;;;;;;;34.70;23.58;;;;;;;-0.14;65.65;100090.16;4453210;32;33968;-80
2023/12/05 00:08:24;;;;;;;33.33;22.37;;;;;;;-0.11;65.51;100084.91;4453534;32;34190;-80
2023/12/05 00:10:53;;;;;;;34.70;23.65;;;;;;;-0.05;65.30;100083.00;4452762;32;34180;-80
2023/12/05 00:13:23;;;;;;;35.70;24.25;;;;;;;-0.14;65.83;100082.34;4452851;32;33628;-80
2023/12/05 00:15:52;;;;;;;34.58;23.62;;;;;;;-0.52;66.85;100079.69;4448235;32;34268;-80
2023/12/05 00:18:21;;;;;;;35.45;24.63;;;;;;;-0.59;67.43;100082.47;4469287;32;33652;-80
2023/12/05 00:20:54;;;;;;;38.67;24.65;;;;;;;-0.55;66.91;100089.34;4468820;32;34476;-80
2023/12/05 00:23:23;;;;;;;34.67;23.55;;;;;;;-0.28;66.13;100082.66;4468729;32;34858;-80
2023/12/05 00:25:52;;;;;;;36.53;24.17;;;;;;;-0.18;65.69;100084.16;4468558;32;34730;-80
2023/12/05 00:28:22;;;;;;;33.47;22.60;;;;;;;-0.02;65.17;100069.91;4468744;32;33675;-80
2023/12/05 00:30:52;;;;;;;33.97;22.67;;;;;;;-0.11;65.73;100079.69;4468870;32;33865;-80
2023/12/05 00:33:21;;;;;;;34.72;22.00;;;;;;;0.16;64.52;100080.78;4468666;32;33605;-81
2023/12/05 00:35:51;;;;;;;38.10;22.98;;;;;;;0.03;64.89;100082.81;4467290;32;34649;-80
2023/12/05 00:38:22;;;;;;;34.35;24.15;;;;;;;-0.05;65.14;100082.13;4469099;32;33884;-80
2023/12/05 00:40:51;;;;;;;34.35;22.40;;;;;;;-0.30;65.57;100072.28;4468741;32;33627;-80
2023/12/05 00:43:21;;;;;;;34.33;21.75;;;;;;;0.12;64.36;100074.81;4468585;32;34556;-80
2023/12/05 00:45:50;;;;;;;31.58;21.52;;;;;;;0.08;64.58;100070.56;4468846;32;33932;-80
2023/12/05 00:48:21;;;;;;;32.40;21.12;;;;;;;-0.11;64.92;100070.13;4469208;32;33298;-80
2023/12/05 00:50:51;;;;;;;34.40;21.70;;;;;;;0.12;64.67;100077.41;4468620;32;33706;-80
2023/12/05 00:53:21;;;;;;;30.90;21.08;;;;;;;0.01;64.41;100088.97;4468270;32;34078;-80
2023/12/05 00:55:51;;;;;;;32.15;21.92;;;;;;;-0.01;64.42;100076.81;4456037;32;33883;-81
2023/12/05 00:58:20;;;;;;;32.95;21.65;;;;;;;0.10;63.90;100079.19;4453241;32;33499;-80
2023/12/05 01:00:50;;;;;;;32.22;21.52;;;;;;;-0.15;64.71;100084.09;4452813;32;33983;-80
2023/12/05 01:03:20;;;;;;;33.30;22.30;;;;;;;-0.14;64.87;100071.94;4453270;32;34409;-81
2023/12/05 01:05:49;;;;;;;31.67;20.70;;;;;;;-0.17;64.80;100079.81;4453284;32;33943;-80
2023/12/05 01:08:21;;;;;;;32.28;21.30;;;;;;;-0.22;64.96;100076.47;4455328;32;33912;-80
2023/12/05 01:10:51;;;;;;;33.22;21.02;;;;;;;-0.20;64.77;100069.47;4455802;32;33801;-81
2023/12/05 01:13:20;;;;;;;38.28;24.52;;;;;;;0.04;64.42;100066.31;4455359;32;34119;-80
2023/12/05 01:15:50;;;;;;;33.60;21.73;;;;;;;0.11;63.93;100062.66;4450510;32;32644;-81
2023/12/05 01:18:19;;;;;;;33.97;21.75;;;;;;;0.14;63.73;100064.34;4472190;32;34005;-81
2023/12/05 01:20:48;;;;;;;30.60;22.17;;;;;;;-0.18;64.82;100063.34;4471096;32;34222;-81
2023/12/05 01:23:17;;;;;;;29.87;20.77;;;;;;;-0.21;65.24;100057.34;4471184;32;34266;-81
2023/12/05 01:25:48;;;;;;;33.25;22.37;;;;;;;-0.19;65.13;100058.19;4471267;32;33979;-81
2023/12/05 01:28:17;;;;;;;33.88;24.48;;;;;;;-0.33;66.26;100038.50;4471875;32;33341;-80
2023/12/05 01:30:47;;;;;;;30.80;19.35;;;;;;;-0.40;66.52;100021.28;4471095;32;34646;-80
2023/12/05 01:33:19;;;;;;;49.05;23.15;;;;;;;-0.78;67.81;100010.00;4471359;32;34388;-80
2023/12/05 01:35:48;;;;;;;38.45;22.65;;;;;;;-0.68;67.52;99997.62;4455659;32;32896;-80
2023/12/05 01:38:18;;;;;;;35.33;22.48;;;;;;;-0.77;67.80;99984.81;4470952;32;33550;-80
2023/12/05 01:40:50;;;;;;;34.30;22.35;;;;;;;-0.52;67.45;99988.59;4470955;32;34062;-80
2023/12/05 01:43:19;;;;;;;31.17;21.08;;;;;;;-0.43;67.74;99984.09;4470532;32;35064;-80
2023/12/05 01:45:49;;;;;;;35.92;19.87;;;;;;;-0.68;68.36;99991.56;4471108;32;33753;-80
2023/12/05 01:48:19;;;;;;;34.85;22.77;;;;;;;-0.61;68.48;100001.81;4471946;32;33707;-80
2023/12/05 01:50:49;;;;;;;37.42;23.75;;;;;;;-0.60;68.51;100002.66;4470637;32;34183;-80
2023/12/05 01:53:20;;;;;;;36.08;22.40;;;;;;;-0.69;68.62;99998.53;4470921;32;34425;-80
2023/12/05 01:55:52;;;;;;;32.33;21.83;;;;;;;-0.88;68.97;99994.59;4458141;32;34095;-80
2023/12/05 01:58:21;;;;;;;39.13;24.35;;;;;;;-0.72;69.14;99990.78;4456172;32;34307;-80
2023/12/05 02:00:52;;;;;;;38.03;23.85;;;;;;;-0.48;68.33;99994.59;4456154;32;33701;-80
2023/12/05 02:03:22;;;;;;;36.60;24.25;;;;;;;-0.71;69.83;99984.72;4456530;32;33910;-81
2023/12/05 02:05:51;;;;;;;39.38;24.63;;;;;;;-0.67;69.85;99983.75;4456211;32;33688;-81
2023/12/05 02:08:23;;;;;;;36.95;24.12;;;;;;;-1.07;71.10;99983.72;4456800;32;34511;-81
2023/12/05 02:10:54;;;;;;;32.50;23.17;;;;;;;-0.71;70.42;99973.41;4442044;32;32271;-81
2023/12/05 02:13:23;;;;;;;38.03;24.08;;;;;;;-0.54;69.96;99976.50;4455352;32;35133;-81
2023/12/05 02:16:03;;;;;;;36.13;23.17;;;;;;;-0.58;69.61;99964.47;4451268;32;34278;-80
2023/12/05 02:18:38;;;;;;;32.53;23.65;;;;;;;-0.60;69.98;99964.47;4472329;32;33776;-82
2023/12/05 02:21:16;;;;;;;38.28;24.08;;;;;;;-0.62;69.96;99947.22;4470802;32;49380;-81
2023/12/05 02:24:06;;;;;;;36.38;25.02;;;;;;;-0.52;69.75;99953.91;4471651;32;33731;-81
2023/12/05 02:26:47;;;;;;;36.25;25.92;;;;;;;-0.47;69.37;99953.81;4471515;32;33984;-81
2023/12/05 02:29:17;;;;;;;36.97;22.98;;;;;;;-0.53;69.56;99949.59;4471736;32;34311;-81
2023/12/05 02:31:47;;;;;;;36.92;23.20;;;;;;;-0.44;69.50;99936.34;4471718;32;33989;-81
2023/12/05 02:34:17;;;;;;;35.42;24.05;;;;;;;-0.56;69.42;99928.84;4469540;32;34054;-81
2023/12/05 02:36:59;;;;;;;38.38;24.95;;;;;;;-0.45;69.20;99931.19;4457107;32;31726;-81
2023/12/05 02:39:34;;;;;;;35.10;22.83;;;;;;;-0.60;69.42;99935.84;4471886;32;33532;-81
2023/12/05 02:42:07;;;;;;;39.05;26.62;;;;;;;-0.69;70.12;99940.44;4471782;32;34185;-81
2023/12/05 02:44:42;;;;;;;36.08;24.15;;;;;;;-0.58;69.57;99939.28;4471501;32;33990;-81
2023/12/05 02:47:15;;;;;;;38.22;24.63;;;;;;;-0.63;70.15;99935.09;4471656;32;34573;-81
2023/12/05 02:49:45;;;;;;;36.08;25.98;;;;;;;-0.91;70.67;99935.72;4471465;32;33609;-81
2023/12/05 02:52:26;;;;;;;32.77;22.13;;;;;;;-0.76;70.04;99944.91;4471854;32;34297;-81
2023/12/05 02:54:55;;;;;;;36.33;24.75;;;;;;;-0.75;70.36;99933.63;4465248;32;34035;-81
2023/12/05 02:57:26;;;;;;;36.80;24.63;;;;;;;-0.92;70.85;99936.59;4456619;32;33784;-82
2023/12/05 03:00:00;;;;;;;37.17;24.48;;;;;;;-0.69;70.26;99930.88;4455371;32;33107;-82
2023/12/05 03:02:29;;;;;;;41.35;24.67;;;;;;;-0.66;70.18;99932.56;4455885;32;34051;-82
2023/12/05 03:05:01;;;;;;;36.08;23.83;;;;;;;-0.61;69.88;99923.75;4454750;32;33491;-82
2023/12/05 03:07:30;;;;;;;33.70;22.23;;;;;;;-0.38;69.05;99925.81;4441042;32;32441;-82
2023/12/05 03:10:02;;;;;;;36.10;23.48;;;;;;;-0.45;69.01;99919.03;4454816;32;33705;-82
2023/12/05 03:12:33;;;;;;;35.50;25.75;;;;;;;-0.35;68.71;99919.69;4455209;32;33756;-82
2023/12/05 03:15:07;;;;;;;39.97;23.65;;;;;;;-0.45;69.17;99918.19;4458906;32;47493;-82
2023/12/05 03:17:37;;;;;;;40.55;24.67;;;;;;;-0.53;69.56;99910.56;4470954;32;33711;-82
2023/12/05 03:20:08;;;;;;;33.25;23.30;;;;;;;-0.55;70.00;99908.00;4470227;32;33326;-82
2023/12/05 03:22:37;;;;;;;32.95;22.05;;;;;;;-0.29;69.00;99901.28;4464592;32;33592;-82
2023/12/05 03:25:07;;;;;;;42.25;24.75;;;;;;;-0.66;70.39;99904.78;4464062;32;34774;-82
2023/12/05 03:27:37;;;;;;;35.25;23.15;;;;;;;-0.58;70.27;99908.06;4464406;32;33939;-82
2023/12/05 03:30:09;;;;;;;38.28;24.52;;;;;;;-0.25;68.82;99910.72;4469360;32;49310;-82
2023/12/05 03:32:39;;;;;;;37.75;23.87;;;;;;;-0.38;69.07;99904.97;4455527;32;34032;-82
2023/12/05 03:35:09;;;;;;;35.17;23.27;;;;;;;-0.59;69.93;99895.94;4461485;32;33702;-82
2023/12/05 03:37:38;;;;;;;38.08;23.55;;;;;;;-0.11;68.49;99893.03;4454453;32;34212;-82
2023/12/05 03:40:09;;;;;;;37.08;24.52;;;;;;;-0.44;69.02;99886.91;4454491;32;33829;-82
2023/12/05 03:42:38;;;;;;;34.33;23.15;;;;;;;-0.27;68.94;99874.31;4439736;32;34134;-81
2023/12/05 03:45:10;;;;;;;37.50;24.37;;;;;;;-0.37;68.44;99872.84;4454124;32;34363;-82
2023/12/05 03:47:39;;;;;;;40.42;26.00;;;;;;;-0.21;68.56;99878.50;4440127;32;32350;-82
2023/12/05 03:50:09;;;;;;;36.38;23.52;;;;;;;-0.16;68.43;99884.47;4450975;32;34064;-81
2023/12/05 03:52:39;;;;;;;34.78;22.13;;;;;;;-0.53;69.23;99894.94;4447602;32;33374;-82
2023/12/05 03:55:08;;;;;;;36.22;24.37;;;;;;;-0.26;68.83;99883.00;4443100;32;34093;-82
2023/12/05 03:57:38;;;;;;;38.50;21.92;;;;;;;-0.03;67.86;99874.59;4439948;32;32890;-82
2023/12/05 04:00:10;;;;;;;35.92;24.42;;;;;;;-0.03;67.94;99871.97;4454973;32;47312;-82
2023/12/05 04:02:39;;;;;;;;;;;;;;;-0.29;68.33;99872.66;4455321;32;34229;-82
2023/12/05 04:05:11;;;;;;;38.10;23.43;;;;;;;-0.23;68.56;99866.44;4469564;32;34063;-82
2023/12/05 04:07:42;;;;;;;39.88;24.08;;;;;;;-0.25;68.46;99854.31;4469837;32;34557;-82
2023/12/05 04:10:12;;;;;;;41.30;24.02;;;;;;;-0.19;68.51;99870.69;4468991;32;33772;-81
2023/12/05 04:12:41;;;;;;;40.28;26.48;;;;;;;-0.26;68.85;99870.81;4469834;32;33478;-81
2023/12/05 04:15:12;;;;;;;33.85;23.23;;;;;;;-0.02;68.06;99866.72;4467234;32;35046;-82
2023/12/05 04:17:42;;;;;;;40.12;26.12;;;;;;;-0.38;69.07;99862.47;4469473;32;34310;-82
2023/12/05 04:20:12;;;;;;;39.22;25.10;;;;;;;-0.51;69.43;99864.53;4468909;32;33600;-82
2023/12/05 04:22:42;;;;;;;34.40;21.95;;;;;;;-0.19;68.44;99865.47;4469112;32;34280;-82
2023/12/05 04:25:11;;;;;;;39.33;26.85;;;;;;;0.03;68.23;99864.00;4468921;32;34608;-82
2023/12/05 04:27:40;;;;;;;37.42;26.83;;;;;;;-0.07;68.26;99865.16;4469219;32;34640;-81
2023/12/05 04:30:12;;;;;;;39.63;24.73;;;;;;;0.08;67.59;99853.44;4469070;32;34334;-81
2023/12/05 04:32:44;;;;;;;35.40;23.98;;;;;;;0.42;66.44;99854.22;4469388;32;34040;-82
2023/12/05 04:35:15;;;;;;;41.40;26.15;;;;;;;-0.13;67.96;99866.16;4467277;32;33754;-82
2023/12/05 04:37:44;;;;;;;38.90;26.00;;;;;;;-0.07;68.38;99867.75;4469081;32;33630;-82
2023/12/05 04:40:14;;;;;;;43.00;27.20;;;;;;;-0.08;68.41;99864.28;4468688;32;34189;-82
2023/12/05 04:42:43;;;;;;;43.45;25.48;;;;;;;-0.09;68.49;99865.16;4469400;32;33818;-81
2023/12/05 04:45:14;;;;;;;37.38;24.83;;;;;;;-0.05;68.19;99864.19;4471251;32;33768;-81
2023/12/05 04:47:44;;;;;;;37.35;26.10;;;;;;;0.14;67.49;99866.31;4471770;32;34076;-82
2023/12/05 04:50:14;;;;;;;39.45;25.15;;;;;;;0.00;67.49;99864.09;4470635;32;33822;-82
2023/12/05 04:52:43;;;;;;;37.92;25.80;;;;;;;-0.09;68.16;99867.78;4470843;32;33548;-82
2023/12/05 04:55:12;;;;;;;43.55;28.12;;;;;;;-0.17;68.79;99858.47;4468718;32;33883;-82
2023/12/05 04:57:42;;;;;;;38.80;25.73;;;;;;;-0.12;68.58;99861.78;4470944;32;33709;-82
2023/12/05 05:00:13;;;;;;;43.03;28.83;;;;;;;0.10;67.88;99854.28;4456770;32;33727;-82
2023/12/05 05:02:44;;;;;;;41.75;27.77;;;;;;;0.30;67.23;99858.94;4470869;32;34033;-82
2023/12/05 05:05:14;;;;;;;44.88;26.70;;;;;;;-0.07;68.43;99873.81;4470555;32;35003;-82
2023/12/05 05:07:44;;;;;;;39.53;26.30;;;;;;;0.12;68.08;99860.28;4470621;32;34171;-82
2023/12/05 05:10:14;;;;;;;45.20;27.35;;;;;;;0.09;68.04;99868.19;4470886;32;33095;-81
2023/12/05 05:12:44;;;;;;;42.83;29.75;;;;;;;-0.01;68.50;99870.19;4470382;32;33434;-81
2023/12/05 05:15:13;;;;;;;44.72;28.80;;;;;;;-0.42;69.57;99866.91;4468872;32;33669;-82
2023/12/05 05:17:44;;;;;;;39.45;26.10;;;;;;;0.36;67.25;99867.44;4470835;32;34072;-82
2023/12/05 05:20:14;;;;;;;43.50;29.12;;;;;;;0.13;67.89;99877.63;4470317;32;33720;-82
2023/12/05 05:22:44;;;;;;;44.45;28.02;;;;;;;-0.10;68.75;99871.28;4470420;32;34401;-81
2023/12/05 05:25:15;;;;;;;39.28;26.02;;;;;;;0.19;67.73;99867.88;4455862;32;32375;-82
2023/12/05 05:27:45;;;;;;;40.08;26.87;;;;;;;0.36;67.11;99863.97;4470811;32;34275;-81
2023/12/05 05:30:16;;;;;;;44.70;29.45;;;;;;;0.05;68.19;99874.38;4470501;32;33826;-81
2023/12/05 05:32:47;;;;;;;40.12;27.62;;;;;;;0.22;67.65;99862.59;4470595;32;34494;-82
2023/12/05 05:35:17;;;;;;;37.58;27.62;;;;;;;0.31;67.20;99861.47;4468321;32;33784;-81
2023/12/05 05:37:49;;;;;;;41.13;26.92;;;;;;;0.14;67.70;99861.09;4470519;32;34650;-82
2023/12/05 05:40:19;;;;;;;40.88;27.15;;;;;;;0.20;67.78;99861.81;4470483;32;34283;-81
2023/12/05 05:42:50;;;;;;;36.45;26.87;;;;;;;0.13;67.60;99869.81;4456096;32;32465;-81
2023/12/05 05:45:19;;;;;;;42.55;26.85;;;;;;;0.58;66.67;99865.06;4456436;32;34769;-81
2023/12/05 05:47:50;;;;;;;39.63;26.55;;;;;;;0.47;66.77;99869.72;4470759;32;33767;-82
2023/12/05 05:50:20;;;;;;;38.80;25.73;;;;;;;0.50;66.67;99869.63;4470360;32;33658;-81
2023/12/05 05:52:49;;;;;;;47.83;29.45;;;;;;;0.33;66.90;99861.47;4456065;32;32201;-81
2023/12/05 05:55:18;;;;;;;40.20;29.50;;;;;;;0.15;67.83;99866.25;4467364;32;34041;-81
2023/12/05 05:57:47;;;;;;;43.67;28.58;;;;;;;0.07;68.27;99870.81;4470308;32;33795;-81
2023/12/05 06:00:18;;;;;;;56.63;39.33;;;;;;;-0.05;68.22;99869.41;4470005;32;33843;-81
2023/12/05 06:02:48;;;;;;;45.28;30.12;;;;;;;0.22;68.04;99864.34;4470430;32;34331;-81
2023/12/05 06:05:19;;;;;;;41.28;28.35;;;;;;;0.45;67.09;99864.56;4470104;32;33758;-81
2023/12/05 06:07:52;;;;;;;41.10;28.20;;;;;;;0.51;67.08;99866.13;4470925;32;34146;-81
2023/12/05 06:10:21;;;;;;;45.85;28.83;;;;;;;0.56;66.62;99859.06;4469584;32;34047;-81
2023/12/05 06:12:51;;;;;;;45.72;28.77;;;;;;;0.75;65.89;99869.78;4470296;32;33543;-81
2023/12/05 06:15:20;;;;;;;40.58;27.05;;;;;;;0.73;65.97;99869.81;4468783;32;34187;-82
2023/12/05 06:17:50;;;;;;;50.55;31.35;;;;;;;0.41;67.13;99869.91;4470205;32;33851;-82
2023/12/05 06:20:23;;;;;;;44.17;27.20;;;;;;;1.07;65.31;99870.56;4469673;32;33680;-82
2023/12/05 06:22:52;;;;;;;40.63;28.77;;;;;;;0.68;66.11;99870.87;4470360;32;33651;-81
2023/12/05 06:25:24;;;;;;;40.77;25.60;;;;;;;0.84;65.89;99873.88;4470108;32;33629;-81
2023/12/05 06:27:53;;;;;;;41.10;27.23;;;;;;;0.79;65.59;99876.59;4470522;32;33886;-81
2023/12/05 06:30:22;;;;;;;38.03;28.10;;;;;;;0.67;65.94;99880.47;4469788;32;33807;-81
2023/12/05 06:32:55;;;;;;;35.55;26.37;;;;;;;0.22;67.48;99877.38;4470045;32;33803;-81
2023/12/05 06:35:26;;;;;;;46.90;30.12;;;;;;;0.65;66.54;99868.34;4468312;32;34367;-81
2023/12/05 06:37:56;;;;;;;40.30;26.48;;;;;;;0.40;66.99;99870.81;4470744;32;34120;-82
2023/12/05 06:40:25;;;;;;;39.65;26.25;;;;;;;0.37;67.53;99868.28;4470140;32;34239;-81
2023/12/05 06:42:55;;;;;;;42.08;29.80;;;;;;;0.45;67.22;99869.78;4469863;32;34461;-81
2023/12/05 06:45:24;;;;;;;44.95;27.33;;;;;;;0.55;66.66;99862.53;4469769;32;34313;-81
2023/12/05 06:47:53;;;;;;;44.20;27.95;;;;;;;0.33;67.67;99853.63;4470194;32;33435;-81
2023/12/05 06:50:23;;;;;;;44.40;29.42;;;;;;;0.13;68.49;99862.84;4469255;32;33757;-81
2023/12/05 06:52:57;;;;;;;40.20;29.08;;;;;;;-0.13;69.41;99870.50;4469747;32;34065;-81
2023/12/05 06:55:27;;;;;;;40.42;26.67;;;;;;;0.11;68.56;99855.97;4467585;32;33838;-81
2023/12/05 06:57:56;;;;;;;41.90;28.87;;;;;;;0.56;67.41;99866.03;4469657;32;33403;-81
2023/12/05 07:00:26;;;;;;;39.55;27.70;;;;;;;0.60;66.88;99873.72;4469638;32;33824;-81
2023/12/05 07:02:55;;;;;;;43.22;30.83;;;;;;;0.31;67.64;99877.13;4470000;32;34294;-81
2023/12/05 07:05:24;;;;;;;46.13;29.40;;;;;;;0.24;68.26;99883.41;4468832;32;33991;-81
2023/12/05 07:07:56;;;;;;;40.97;28.10;;;;;;;0.69;66.95;99885.63;4470233;32;34243;-81
2023/12/05 07:10:26;;;;;;;44.30;27.83;;;;;;;0.65;66.77;99884.00;4469152;32;33481;-81
2023/12/05 07:12:55;;;;;;;40.65;27.48;;;;;;;0.15;68.32;99889.72;4469607;32;34150;-82
2023/12/05 07:15:25;;;;;;;44.83;30.48;;;;;;;0.36;67.88;99888.28;4468137;32;33997;-81
2023/12/05 07:17:55;;;;;;;40.40;27.75;;;;;;;0.49;67.44;99884.44;4469802;32;34929;-82
2023/12/05 07:20:27;;;;;;;39.22;27.83;;;;;;;0.81;66.84;99890.47;4469418;32;33773;-81
2023/12/05 07:22:58;;;;;;;38.92;27.10;;;;;;;1.00;66.01;99888.16;4469443;32;34219;-81
2023/12/05 07:25:27;;;;;;;37.38;26.67;;;;;;;0.37;67.83;99895.22;4469769;32;33752;-81
2023/12/05 07:27:57;;;;;;;38.88;24.23;;;;;;;0.55;67.47;99900.78;4455731;32;33073;-82
2023/12/05 07:30:27;;;;;;;42.45;28.67;;;;;;;0.47;67.85;99896.63;4455413;32;33578;-82
2023/12/05 07:32:56;;;;;;;41.03;27.77;;;;;;;0.67;67.32;99890.88;4470094;32;33493;-82
2023/12/05 07:35:27;;;;;;;42.97;30.00;;;;;;;0.57;67.55;99896.41;4467721;32;34660;-82
2023/12/05 07:37:59;;;;;;;49.90;27.77;;;;;;;0.88;66.56;99901.59;4469873;32;34388;-82
2023/12/05 07:40:29;;;;;;;42.20;30.50;;;;;;;0.89;66.59;99905.91;4469459;32;34044;-82
2023/12/05 07:42:58;;;;;;;40.45;27.98;;;;;;;0.77;66.96;99898.44;4470054;32;33671;-82
2023/12/05 07:45:28;;;;;;;39.03;25.62;;;;;;;0.56;67.85;99902.53;4470094;32;33802;-82
2023/12/05 07:47:57;;;;;;;40.35;27.15;;;;;;;0.91;66.79;99904.09;4469855;32;33982;-82
2023/12/05 07:50:28;;;;;;;45.63;31.50;;;;;;;0.63;67.24;99901.44;4455087;32;33725;-82
2023/12/05 07:52:57;;;;;;;39.30;26.50;;;;;;;0.74;67.24;99908.03;4469029;32;34576;-82
2023/12/05 07:55:28;;;;;;;43.80;28.38;;;;;;;0.73;67.04;99900.28;4467436;32;33823;-82
2023/12/05 07:57:58;;;;;;;39.30;25.25;;;;;;;0.87;66.81;99892.03;4469771;32;33901;-82
2023/12/05 08:00:34;;;;;;;45.63;29.00;;;;;;;0.89;66.59;99890.25;4469796;32;33534;-82
2023/12/05 08:03:04;;;;;;;39.25;26.90;;;;;;;0.82;67.10;99897.38;4469658;32;36309;-82
2023/12/05 08:05:33;;;;;;;44.88;28.77;;;;;;;1.06;66.11;99887.13;4455281;32;34243;-82
2023/12/05 08:08:02;;;;;;;42.72;28.20;;;;;;;0.70;67.00;99895.13;4454666;32;35124;-82
2023/12/05 08:10:33;;;;;;;43.13;28.25;;;;;;;1.18;65.92;99882.38;4469545;32;33704;-82
2023/12/05 08:13:02;;;;;;;44.13;28.52;;;;;;;0.85;66.84;99881.66;4469257;32;33776;-82
2023/12/05 08:15:32;;;;;;;37.00;24.70;;;;;;;0.73;67.25;99877.66;4468126;32;33907;-82
2023/12/05 08:18:02;;;;;;;37.78;25.08;;;;;;;0.69;67.23;99876.03;4468832;32;34206;-82
2023/12/05 08:20:34;;;;;;;47.17;27.27;;;;;;;0.84;66.97;99887.78;4469308;32;33346;-82
2023/12/05 08:23:05;;;;;;;41.85;29.50;;;;;;;1.04;66.52;99881.09;4455253;32;34278;-82
2023/12/05 08:25:36;;;;;;;42.08;26.60;;;;;;;1.09;66.36;99885.28;4469659;32;33711;-82
2023/12/05 08:28:05;;;;;;;42.50;27.87;;;;;;;0.94;66.83;99883.97;4469570;32;33966;-82
2023/12/05 08:30:41;;;;;;;40.00;27.02;;;;;;;1.06;66.68;99885.34;4460757;32;34518;-82
2023/12/05 08:33:10;;;;;;;48.20;29.37;;;;;;;1.20;66.04;99888.41;4466243;32;48458;-82
2023/12/05 08:35:40;;;;;;;40.65;27.08;;;;;;;0.78;67.16;99893.16;4467319;32;34459;-83
2023/12/05 08:38:09;;;;;;;36.90;27.02;;;;;;;0.96;66.61;99897.00;4454873;32;34057;-82
2023/12/05 08:40:39;;;;;;;38.47;25.67;;;;;;;1.45;65.11;99891.09;4468828;32;33590;-82
2023/12/05 08:43:10;;;;;;;41.53;28.20;;;;;;;1.21;65.63;99892.72;4469405;32;33685;-83
2023/12/05 08:45:39;;;;;;;44.08;27.55;;;;;;;1.46;65.07;99884.09;4470120;32;34282;-82
2023/12/05 08:48:09;;;;;;;41.70;28.00;;;;;;;1.19;65.42;99891.06;4469149;32;34573;-83
2023/12/05 08:50:39;;;;;;;40.60;28.40;;;;;;;1.63;64.43;99886.19;4454661;32;32799;-82
2023/12/05 08:53:08;;;;;;;39.33;26.50;;;;;;;1.26;65.23;99878.66;4468296;32;33925;-83
2023/12/05 08:55:41;;;;;;;36.92;24.77;;;;;;;1.24;65.56;99883.94;4448988;32;269966;-82
2023/12/05 08:58:11;;;;;;;40.95;26.02;;;;;;;1.23;65.91;99879.63;4452762;32;33242;-83
2023/12/05 09:00:40;;;;;;;34.95;25.40;;;;;;;1.00;66.58;99880.34;4455289;32;34587;-83
2023/12/05 09:03:10;;;;;;;38.75;24.37;;;;;;;1.28;65.57;99889.94;4456427;32;32540;-83
2023/12/05 09:05:39;;;;;;;35.78;24.70;;;;;;;1.04;66.90;99888.94;4469861;32;34159;-83
2023/12/05 09:08:10;;;;;;;40.45;27.05;;;;;;;1.60;65.37;99881.06;4470229;32;34215;-82
2023/12/05 09:10:40;;;;;;;41.58;27.42;;;;;;;1.40;65.81;99879.09;4469569;32;34620;-82
2023/12/05 09:13:12;;;;;;;38.45;27.62;;;;;;;1.21;66.05;99897.09;4469307;32;34016;-83
2023/12/05 09:15:43;;;;;;;39.97;27.10;;;;;;;1.51;65.19;99894.44;4468478;32;33991;-82
2023/12/05 09:18:13;;;;;;;37.33;25.75;;;;;;;1.77;64.20;99886.56;4471190;32;34817;-83
2023/12/05 09:20:43;;;;;;;37.83;24.65;;;;;;;1.36;65.52;99885.31;4470195;32;34459;-83
2023/12/05 09:23:12;;;;;;;40.10;27.15;;;;;;;1.34;65.82;99887.13;4470711;32;34210;-83
2023/12/05 09:25:45;;;;;;;40.17;26.30;;;;;;;1.64;65.11;99891.34;4470329;32;34384;-83
2023/12/05 09:28:15;;;;;;;41.72;26.48;;;;;;;2.04;63.83;99878.72;4470516;32;34140;-82
2023/12/05 09:30:45;;;;;;;39.67;25.52;;;;;;;1.80;64.48;99881.25;4472852;32;33580;-82
2023/12/05 09:33:15;;;;;;;40.58;27.37;;;;;;;1.77;64.52;99878.72;4472220;32;33901;-82
2023/12/05 09:35:45;;;;;;;41.63;27.25;;;;;;;1.45;65.36;99870.19;4469693;32;33589;-82
2023/12/05 09:38:14;;;;;;;42.53;26.73;;;;;;;1.67;64.68;99870.38;4472085;32;33782;-82
2023/12/05 09:40:46;;;;;;;44.35;27.23;;;;;;;1.57;64.86;99866.34;4472155;32;33669;-83
2023/12/05 09:43:18;;;;;;;38.70;26.33;;;;;;;1.62;65.11;99868.78;4472202;32;33577;-82
2023/12/05 09:45:56;;;;;;;39.27;25.07;;;;;;;1.51;65.18;99863.09;4473167;32;33981;-82
2023/12/05 09:48:31;;;;;;;35.17;24.10;;;;;;;1.68;64.87;99860.75;4470491;32;33765;-82
2023/12/05 09:51:00;;;;;;;39.75;25.17;;;;;;;1.57;65.40;99852.44;4471977;32;33807;-82
2023/12/05 09:53:32;;;;;;;41.15;26.52;;;;;;;2.02;63.92;99852.62;4468977;32;33850;-82
2023/12/05 09:56:04;;;;;;;40.30;29.00;;;;;;;1.80;63.96;99849.06;4469203;32;34035;-82
2023/12/05 09:58:37;;;;;;;42.60;28.75;;;;;;;1.51;65.29;99850.88;4471456;32;34744;-81
2023/12/05 10:01:07;;;;;;;42.00;28.17;;;;;;;2.06;64.18;99846.41;4470711;32;33677;-82
2023/12/05 10:03:40;;;;;;;45.17;29.08;;;;;;;2.29;63.03;99837.69;4457934;32;32800;-82
2023/12/05 10:06:10;;;;;;;39.97;28.02;;;;;;;2.02;64.25;99831.72;4472202;32;48708;-82
2023/12/05 10:08:41;;;;;;;39.58;27.70;;;;;;;1.80;64.40;99838.59;4471585;32;33346;-82
2023/12/05 10:11:14;;;;;;;50.55;29.85;;;;;;;2.29;63.31;99822.00;4470847;32;33037;-81
2023/12/05 10:13:45;;;;;;;71.00;37.78;;;;;;;2.51;62.64;99818.63;4470747;32;33913;-81
2023/12/05 10:16:17;;;;;;;48.53;30.10;;;;;;;2.22;63.45;99817.94;4468974;32;33811;-81
2023/12/05 10:18:47;;;;;;;61.88;33.05;;;;;;;3.42;71.80;99808.91;4471242;32;34016;-81
2023/12/05 10:21:17;;;;;;;66.25;35.53;;;;;;;3.79;67.09;99797.72;4471295;32;34149;-81
2023/12/05 10:23:46;;;;;;;57.70;36.17;;;;;;;4.10;61.70;99794.59;4470988;32;33494;-81
2023/12/05 10:26:17;;;;;;;63.17;34.97;;;;;;;4.42;61.81;99794.94;4470232;32;34797;-81
2023/12/05 10:28:51;;;;;;;75.40;39.28;;;;;;;3.98;58.25;99792.53;4470203;32;34141;-81
2023/12/05 10:31:20;;;;;;;60.20;34.88;;;;;;;3.98;58.08;99797.78;4469726;32;33653;-81
2023/12/05 10:33:50;;;;;;;58.00;32.78;;;;;;;3.65;58.82;99782.59;4469561;32;34776;-82
2023/12/05 10:36:22;;;;;;;49.25;30.73;;;;;;;4.04;58.10;99780.91;4468542;32;33691;-82
2023/12/05 10:38:52;;;;;;;71.93;35.80;;;;;;;3.75;58.80;99774.34;4470101;32;35532;-81
2023/12/05 10:41:24;;;;;;;60.88;33.95;;;;;;;3.76;58.69;99776.91;4453381;32;33775;-81
2023/12/05 10:43:55;;;;;;;58.60;32.42;;;;;;;3.42;59.48;99780.09;4454987;32;33928;-81
2023/12/05 10:46:26;;;;;;;62.15;37.08;;;;;;;3.75;58.48;99782.19;4454665;32;34922;-81
2023/12/05 10:48:57;;;;;;;73.53;34.47;;;;;;;3.55;59.01;99783.88;4454370;32;34637;-81
2023/12/05 10:51:26;;;;;;;64.55;32.70;;;;;;;3.57;58.82;99761.12;4454877;32;33389;-81
2023/12/05 10:53:56;;;;;;;76.45;37.13;;;;;;;2.81;61.14;99769.47;4454624;32;34002;-81
2023/12/05 10:56:28;;;;;;;44.42;28.60;;;;;;;2.92;60.97;99768.16;4466833;32;33843;-81
2023/12/05 10:59:00;;;;;;;65.90;34.78;;;;;;;2.31;62.44;99764.47;4465694;32;34228;-82
2023/12/05 11:01:35;;;;;;;73.12;36.35;;;;;;;2.72;61.97;99766.31;4470048;32;33287;-81
2023/12/05 11:04:07;;;;;;;63.83;32.30;;;;;;;2.80;61.52;99775.62;4470080;32;33793;-81
2023/12/05 11:06:37;;;;;;;54.63;33.15;;;;;;;2.04;63.35;99768.94;4470842;32;33974;-82
2023/12/05 11:09:06;;;;;;;66.00;35.78;;;;;;;2.12;63.34;99778.19;4470338;32;49321;-81
2023/12/05 11:11:41;;;;;;;77.50;39.17;;;;;;;2.08;64.16;99781.84;4463604;32;33596;-81
2023/12/05 11:14:15;;;;;;;73.60;38.08;;;;;;;2.62;62.54;99779.84;4468013;32;33776;-81
2023/12/05 11:16:53;;;;;;;51.50;31.35;;;;;;;2.65;62.67;99777.97;4454120;32;32145;-81
2023/12/05 11:19:35;;;;;;;78.70;40.58;;;;;;;2.35;63.10;99779.13;4454414;32;33779;-81
2023/12/05 11:22:18;;;;;;;71.00;36.60;;;;;;;2.41;62.91;99771.87;4453817;32;33526;-81
2023/12/05 11:25:12;;;;;;;69.62;35.53;;;;;;;2.43;63.07;99769.22;4453519;32;33769;-81
2023/12/05 11:27:59;;;;;;;72.93;40.75;;;;;;;2.64;62.58;99773.63;4438578;32;34691;-81
2023/12/05 11:30:59;;;;;;;64.05;37.42;;;;;;;2.36;63.01;99768.59;4438621;32;34108;-81
2023/12/05 11:33:42;;;;;;;123.87;54.00;;;;;;;2.33;63.24;99765.25;4423580;32;47302;-81
2023/12/05 11:36:24;;;;;;;72.07;38.50;;;;;;;2.80;62.20;99770.41;4442761;32;48372;-81
2023/12/05 11:38:57;;;;;;;54.00;30.80;;;;;;;2.68;62.52;99769.97;4454106;32;34768;-80